Flight Track Log - Related Links

Times and Time Zones

All times are in EDT time to prevent confusion due to time zone crossing. See the UAL623 flight status page for this flight to view local times or setup timezone preferences in your user account.

Time Position Orientation Groundspeed Altitude Reporting Facility
EDT Latitude Longitude Course Direction KTS MPH feet Rate Location/Type
Sat 07:53:35 PM 42.0000 -87.9500 253° West 161 185 2,400  Level Chicago TRACON
Sat 07:54:35 PM 41.9833 -88.0333 255° West 210 242 4,500 2,286 Climbing Chicago TRACON
Sat 07:55:00 PM 41.8737 -88.3408 242° Southwest  Level FlightAware Approximate
Sat 07:56:00 PM 41.8330 -88.4848 254° West  Level FlightAware Approximate
Sat 07:56:02 PM 41.9808 -88.1422 268° West 224 258 8,000  Level Chicago Center
Sat 07:57:00 PM 41.8002 -88.6333 254° West  Level FlightAware Approximate
Sat 07:57:03 PM 41.9739 -88.2578 265° West 256 295 11,300  Level Chicago Center
Sat 07:58:00 PM 41.7673 -88.7817 253° West  Level FlightAware Approximate
Sat 07:58:04 PM 41.9606 -88.3708 261° West 304 350 13,200  Level Chicago Center
Sat 07:59:06 PM 41.9444 -88.4875 260° West 319 367 16,100 2,732 Climbing Chicago Center
Sat 08:00:07 PM 41.9294 -88.6019 260° West 317 365 18,800 2,311 Climbing Chicago Center
Sat 08:01:08 PM 41.9142 -88.7181 260° West 318 366 20,800 1,820 Climbing Chicago Center
Sat 08:02:09 PM 41.8983 -88.8378 260° West 327 376 22,500 1,512 Climbing Chicago Center
Sat 08:03:11 PM 41.8858 -88.9644 262° West 342 394 23,900 1,805 Climbing Chicago Center
Sat 08:04:12 PM 41.8597 -89.1225 258° West 365 420 26,200 1,918 Climbing Chicago Center
Sat 08:05:13 PM 41.8378 -89.2539 257° West 365 420 27,800 1,426 Climbing Chicago Center
Sat 08:06:14 PM 41.8136 -89.3856 256° West 367 422 29,100 1,230 Climbing Chicago Center
Sat 08:07:15 PM 41.7878 -89.5239 256° West 379 436 30,300 976 Climbing Chicago Center
Sat 08:08:17 PM 41.7639 -89.6569 257° West 384 442 31,100 1,073 Climbing Chicago Center
Sat 08:09:18 PM 41.7383 -89.7997 257° West 393 452 32,500 1,230 Climbing Chicago Center
Sat 08:10:19 PM 41.7128 -89.9414 256° West 394 453 33,600 1,180 Climbing Chicago Center
Sat 08:11:20 PM 41.6797 -90.1122 256° West 397 457 34,900 976 Climbing Chicago Center
Sat 08:12:22 PM 41.6531 -90.2558 256° West 400 460 35,600 537 Climbing Chicago Center
Sat 08:13:23 PM 41.6250 -90.4058 256° West 412 474 36,000 197 Climbing Chicago Center
Sat 08:14:24 PM 41.5978 -90.5483 256° West 406 467 36,000  Level Chicago Center
Sat 08:15:25 PM 41.5692 -90.6922 255° West 399 459 36,000  Level Chicago Center
Sat 08:16:26 PM 41.5419 -90.8350 256° West 399 459 36,000  Level Chicago Center
Sat 08:17:28 PM 41.5139 -90.9750 255° West 398 458 36,000  Level Chicago Center
Sat 08:18:29 PM 41.4861 -91.1169 255° West 398 458 36,000  Level Chicago Center
Sat 08:19:30 PM 41.4578 -91.2614 255° West 401 461 36,000  Level Chicago Center
Sat 08:20:31 PM 41.4289 -91.4047 255° West 401 461 36,000  Level Chicago Center
Sat 08:21:32 PM 41.3944 -91.5783 255° West 404 465 36,000  Level Chicago Center
Sat 08:22:33 PM 41.3653 -91.7219 255° West 405 466 36,000  Level Chicago Center
Sat 08:23:34 PM 41.3353 -91.8653 254° West 405 466 36,000  Level Chicago Center
Sat 08:24:36 PM 41.3053 -92.0094 255° West 407 468 36,000  Level Chicago Center
Sat 08:25:37 PM 41.2750 -92.1544 255° West 408 470 36,000  Level Chicago Center
Sat 08:26:38 PM 41.2447 -92.3000 255° West 409 471 36,000  Level Chicago Center
Sat 08:27:39 PM 41.2100 -92.4658 254° West 411 473 36,000  Level Chicago Center
Sat 08:28:40 PM 41.1794 -92.6111 254° West 413 475 36,000  Level Chicago Center
Sat 08:29:33 PM 41.1544 -92.7278 254° West 414 476 36,000  Level Minneapolis Center
Sat 08:30:35 PM 41.1231 -92.8733 254° West 413 475 36,000  Level Minneapolis Center
Sat 08:31:36 PM 41.0917 -93.0175 254° West 414 476 36,000  Level Minneapolis Center
Sat 08:32:37 PM 41.0533 -93.1914 254° West 415 478 36,000  Level Minneapolis Center
Sat 08:33:38 PM 41.0219 -93.3347 254° West 413 475 36,000  Level Minneapolis Center
Sat 08:34:40 PM 40.9903 -93.4803 254° West 415 478 36,000  Level Minneapolis Center
Sat 08:35:41 PM 40.9572 -93.6272 253° West 419 482 36,000  Level Minneapolis Center
Sat 08:36:42 PM 40.9239 -93.7731 253° West 420 483 36,000  Level Minneapolis Center
Sat 08:37:43 PM 40.8922 -93.9186 254° West 419 482 36,000  Level Minneapolis Center
Sat 08:38:45 PM 40.8517 -94.0956 253° West 421 484 36,000  Level Minneapolis Center
Sat 08:39:46 PM 40.8178 -94.2419 253° West 421 484 36,000  Level Minneapolis Center
Sat 08:40:47 PM 40.7822 -94.3892 252° West 423 487 36,000  Level Minneapolis Center
Sat 08:41:48 PM 40.7489 -94.5361 253° West 423 487 36,000  Level Minneapolis Center
Sat 08:42:50 PM 40.7103 -94.7014 253° West 422 486 36,000  Level Minneapolis Center
Sat 08:43:51 PM 40.6764 -94.8497 253° West 422 486 36,000  Level Minneapolis Center
Sat 08:44:52 PM 40.6414 -94.9978 253° West 422 486 36,000  Level Minneapolis Center
Sat 08:45:54 PM 40.6058 -95.1461 253° West 422 486 36,000  Level Minneapolis Center
Sat 08:46:55 PM 40.5711 -95.2919 253° West 419 482 36,000  Level Minneapolis Center
Sat 08:47:57 PM 40.5356 -95.4408 253° West 421 484 36,000  Level Minneapolis Center
Sat 08:48:58 PM 40.5000 -95.5883 252° West 422 486 36,000  Level Minneapolis Center
Sat 08:49:59 PM 40.4650 -95.7339 253° West 420 483 36,000  Level Minneapolis Center
Sat 08:51:01 PM 40.4281 -95.8808 252° West 420 483 36,000  Level Minneapolis Center
Sat 08:52:02 PM 40.3919 -96.0303 252° West 424 488 36,000  Level Minneapolis Center
Sat 08:53:03 PM 40.3550 -96.1806 252° West 425 489 36,000  Level Minneapolis Center
Sat 08:54:17 PM 40.3183 -96.3272 252° West 426 490 36,000  Level Minneapolis Center
Sat 08:55:18 PM 40.2661 -96.5331 252° West 425 489 36,000  Level Minneapolis Center
Sat 08:56:20 PM 40.2281 -96.6817 252° West 426 490 36,000  Level Minneapolis Center
Sat 08:57:21 PM 40.1892 -96.8308 251° West 430 495 36,000  Level Minneapolis Center
Sat 08:58:23 PM 40.1517 -96.9811 252° West 431 496 36,000  Level Minneapolis Center
Sat 08:59:24 PM 40.1144 -97.1306 252° West 432 497 36,000  Level Minneapolis Center
Sat 09:00:27 PM 40.0747 -97.2797 251° West 433 498 36,000  Level Minneapolis Center
Sat 09:01:28 PM 40.0350 -97.4286 251° West 434 499 36,000  Level Minneapolis Center
Sat 09:02:41 PM 39.9967 -97.5778 251° West 433 498 36,000  Level Minneapolis Center
Sat 09:03:43 PM 39.9478 -97.7564 250° West 433 498 36,000  Level Minneapolis Center
Sat 09:04:44 PM 39.9003 -97.9369 251° West 435 501 36,000  Level Minneapolis Center
Sat 09:05:45 PM 39.8614 -98.0844 251° West 434 499 36,000  Level Minneapolis Center
Sat 09:06:47 PM 39.8208 -98.2325 250° West 433 498 36,000  Level Minneapolis Center
Sat 09:07:48 PM 39.7800 -98.3800 250° West 432 497 36,000  Level Minneapolis Center
Sat 09:08:49 PM 39.7414 -98.5281 251° West 432 497 36,000  Level Minneapolis Center
Sat 09:09:50 PM 39.6994 -98.6756 250° West 433 498 36,000  Level Minneapolis Center
Sat 09:10:52 PM 39.6586 -98.8231 250° West 433 498 36,000  Level Minneapolis Center
Sat 09:11:21 PM 39.6422 -98.8819 250° West 433 498 36,000  Level Denver Center
Sat 09:12:23 PM 39.5931 -99.0592 250° West 434 499 36,000  Level Denver Center
Sat 09:13:24 PM 39.5503 -99.2067 249° West 436 502 36,000  Level Denver Center
Sat 09:14:37 PM 39.5008 -99.3850 250° West 437 503 36,000  Level Denver Center
Sat 09:15:38 PM 39.4583 -99.5336 250° West 436 502 36,000  Level Denver Center
Sat 09:16:40 PM 39.4178 -99.6756 250° West 439 505 36,000  Level Denver Center
Sat 09:17:41 PM 39.3703 -99.8389 249° West 435 501 36,000  Level Denver Center
Sat 09:18:42 PM 39.3303 -99.9814 250° West 439 505 36,000  Level Denver Center
Sat 09:19:43 PM 39.2894 -100.1222 250° West 438 504 36,000  Level Denver Center
Sat 09:20:45 PM 39.2411 -100.2850 249° West 437 503 36,000  Level Denver Center
Sat 09:21:46 PM 39.1975 -100.4256 248° West 439 505 36,000  Level Denver Center
Sat 09:22:47 PM 39.1539 -100.5647 248° West 438 504 36,000  Level Denver Center
Sat 09:23:49 PM 39.1022 -100.7278 248° West 438 504 36,000  Level Denver Center
Sat 09:24:50 PM 39.0583 -100.8650 248° West 435 501 36,000  Level Denver Center
Sat 09:25:51 PM 39.0131 -101.0122 248° West 444 511 36,000  Level Denver Center
Sat 09:26:53 PM 38.9611 -101.1725 247° West 438 504 36,000  Level Denver Center
Sat 09:27:54 PM 38.9167 -101.3100 247° West 437 503 36,000  Level Denver Center
Sat 09:28:55 PM 38.8650 -101.4711 248° West 437 503 36,000  Level Denver Center
Sat 09:29:57 PM 38.8208 -101.6083 248° West 437 503 36,000  Level Denver Center
Sat 09:30:58 PM 38.7758 -101.7453 247° West 438 504 36,000  Level Denver Center
Sat 09:31:59 PM 38.7233 -101.9064 247° West 441 507 36,000  Level Denver Center
Sat 09:33:01 PM 38.6775 -102.0442 247° West 441 507 36,000  Level Denver Center
Sat 09:34:02 PM 38.6242 -102.2050 247° West 441 507 36,000  Level Denver Center
Sat 09:35:03 PM 38.5861 -102.3211 247° West 443 510 36,000 195 Level Denver Center
Sat 09:36:05 PM 38.5250 -102.5058 247° West 443 510 36,400 488 Climbing Denver Center
Sat 09:37:06 PM 38.4769 -102.6450 246° West 447 514 37,000 585 Climbing Denver Center
Sat 09:38:08 PM 38.4331 -102.7822 248° West 441 507 37,600 488 Climbing Denver Center
Sat 09:39:09 PM 38.3964 -102.9444 254° West 428 493 38,000 197 Climbing Denver Center
Sat 09:40:10 PM 38.3694 -103.0850 256° West 429 494 38,000  Level Denver Center
Sat 09:41:12 PM 38.3361 -103.2478 255° West 427 491 38,000  Level Denver Center
Sat 09:42:13 PM 38.3044 -103.3928 254° West 428 493 38,000  Level Denver Center
Sat 09:43:15 PM 38.2744 -103.5331 255° West 430 495 38,000  Level Denver Center
Sat 09:44:16 PM 38.2400 -103.6978 255° West 433 498 38,000  Level Denver Center
Sat 09:45:17 PM 38.2089 -103.8394 254° West 435 501 38,000  Level Denver Center
Sat 09:46:18 PM 38.1786 -103.9803 255° West 434 499 38,000  Level Denver Center
Sat 09:47:20 PM 38.1408 -104.1450 254° West 437 503 38,000  Level Denver Center
Sat 09:48:21 PM 38.1100 -104.2856 254° West 435 501 38,000  Level Denver Center
Sat 09:49:22 PM 38.0739 -104.4494 254° West 435 501 38,000  Level Denver Center
Sat 09:50:24 PM 38.0433 -104.5892 255° West 432 497 38,000  Level Denver Center
Sat 09:51:25 PM 38.0075 -104.7536 255° West 434 499 38,000  Level Denver Center
Sat 09:52:26 PM 37.9756 -104.8939 254° West 435 501 38,000  Level Denver Center
Sat 09:53:28 PM 37.9439 -105.0347 254° West 435 501 38,000  Level Denver Center
Sat 09:54:29 PM 37.9056 -105.1983 254° West 435 501 38,000  Level Denver Center
Sat 09:55:30 PM 37.8722 -105.3386 253° West 435 501 38,000  Level Denver Center
Sat 09:56:32 PM 37.8344 -105.5044 254° West 439 505 38,000  Level Denver Center
Sat 09:57:33 PM 37.8011 -105.6456 253° West 439 505 38,000  Level Denver Center
Sat 09:58:34 PM 37.7683 -105.7883 254° West 442 509 38,000  Level Denver Center
Sat 09:59:35 PM 37.7267 -105.9556 253° West 448 516 38,000  Level Denver Center
Sat 10:00:37 PM 37.6939 -106.0994 254° West 447 514 38,000  Level Denver Center
Sat 10:01:38 PM 37.6539 -106.2622 253° West 446 513 38,000  Level Denver Center
Sat 10:02:39 PM 37.6181 -106.4092 253° West 457 526 38,000  Level Denver Center
Sat 10:03:41 PM 37.5772 -106.5775 253° West 453 521 38,000  Level Denver Center
Sat 10:04:42 PM 37.5411 -106.7239 253° West 455 524 38,000  Level Denver Center
Sat 10:05:43 PM 37.5056 -106.8708 253° West 458 527 38,000  Level Denver Center
Sat 10:06:44 PM 37.4625 -107.0400 252° West 455 524 38,000  Level Denver Center
Sat 10:07:45 PM 37.4267 -107.1856 253° West 456 525 38,000  Level Denver Center
Sat 10:08:59 PM 37.3900 -107.3306 252° West 457 526 38,000  Level Denver Center
Sat 10:10:00 PM 37.3414 -107.5228 252° West 455 524 38,000  Level Denver Center
Sat 10:11:01 PM 37.3042 -107.6669 252° West 454 522 38,000  Level Denver Center
Sat 10:12:02 PM 37.2828 -107.8381 261° West 444 511 38,000  Level Denver Center
Sat 10:13:03 PM 37.3286 -107.9736 293° West 445 512 38,000  Level Denver Center
Sat 10:14:04 PM 37.3878 -108.1244 296° West 435 501 38,000  Level Denver Center
Sat 10:15:06 PM 37.4386 -108.2569 296° West 437 503 38,000  Level Denver Center
Sat 10:16:19 PM 37.5083 -108.4325 297° West 440 506 38,000  Level Denver Center
Sat 10:17:20 PM 37.5514 -108.5686 292° West 439 505 38,000  Level Denver Center
Sat 10:18:21 PM 37.5264 -108.7228 258° West 482 555 38,000  Level Denver Center
Sat 10:19:22 PM 37.4636 -108.8858 244° Southwest 472 543 38,000  Level Denver Center
Sat 10:20:23 PM 37.4100 -109.0319 245° Southwest 480 552 38,000  Level Denver Center
Sat 10:21:24 PM 37.3472 -109.2022 245° Southwest 481 554 38,000  Level Denver Center
Sat 10:22:25 PM 37.2942 -109.3456 245° Southwest 477 549 38,000  Level Denver Center
Sat 10:23:26 PM 37.2411 -109.4900 245° Southwest 477 549 38,000  Level Denver Center
Sat 10:24:27 PM 37.1750 -109.6633 244° Southwest 489 563 38,000  Level Denver Center
Sat 10:25:28 PM 37.1222 -109.8053 245° Southwest 480 552 38,000  Level Denver Center
Sat 10:26:29 PM 37.0700 -109.9442 245° Southwest 468 539 38,000  Level Denver Center
Sat 10:27:30 PM 37.0056 -110.1128 244° Southwest 477 549 38,000  Level Denver Center
Sat 10:28:31 PM 36.9469 -110.2644 244° Southwest 475 547 38,000  Level Denver Center
Sat 10:29:32 PM 36.8900 -110.4119 244° Southwest 472 543 38,000  Level Denver Center
Sat 10:30:33 PM 36.8331 -110.5608 244° Southwest 474 545 38,000  Level Denver Center
Sat 10:31:34 PM 36.7747 -110.7092 244° Southwest 478 550 38,000  Level Denver Center
Sat 10:32:34 PM 36.7181 -110.8572 245° Southwest 475 547 38,000  Level Denver Center
Sat 10:33:35 PM 36.6614 -111.0039 244° Southwest 472 543 38,000  Level Denver Center
Sat 10:34:36 PM 36.6033 -111.1533 244° Southwest 475 547 38,000  Level Denver Center
Sat 10:35:49 PM 36.5433 -111.3017 243° Southwest 478 550 38,000  Level Denver Center
Sat 10:36:50 PM 36.4725 -111.4789 244° Southwest 477 549 38,000  Level Denver Center
Sat 10:37:51 PM 36.4122 -111.6278 243° Southwest 479 551 38,000  Level Denver Center
Sat 10:38:52 PM 36.3547 -111.7758 244° Southwest 479 551 38,000  Level Denver Center
Sat 10:39:53 PM 36.2942 -111.9228 243° Southwest 477 549 38,000  Level Denver Center
Sat 10:40:53 PM 36.2353 -112.0708 244° Southwest 478 550 38,000  Level Denver Center
Sat 10:41:54 PM 36.1633 -112.2486 243° Southwest 480 552 38,000  Level Denver Center
Sat 10:43:07 PM 36.0928 -112.4222 243° Southwest 472 543 38,000  Level Los Angeles Center
Sat 10:44:08 PM 36.0314 -112.5694 243° Southwest 477 549 38,000  Level Los Angeles Center
Sat 10:45:09 PM 35.9708 -112.7164 243° Southwest 480 552 38,000  Level Los Angeles Center
Sat 10:46:10 PM 35.9186 -112.8431 243° Southwest 486 559 38,000  Level Los Angeles Center
Sat 10:47:12 PM 35.8467 -113.0172 243° Southwest 483 556 38,000  Level Los Angeles Center
Sat 10:48:13 PM 35.7856 -113.1603 242° Southwest 482 555 38,000  Level Los Angeles Center
Sat 10:49:14 PM 35.7253 -113.3064 243° Southwest 484 557 38,000  Level Los Angeles Center
Sat 10:50:15 PM 35.6644 -113.4514 243° Southwest 483 556 38,000  Level Los Angeles Center
Sat 10:51:16 PM 35.6153 -113.5661 242° Southwest 482 555 38,000  Level Los Angeles Center
Sat 10:52:18 PM 35.5450 -113.7408 244° Southwest 481 554 38,000  Level Los Angeles Center
Sat 10:53:19 PM 35.4733 -113.9153 243° Southwest 482 555 38,000  Level Los Angeles Center
Sat 10:54:20 PM 35.4164 -114.0531 243° Southwest 481 554 38,000  Level Los Angeles Center
Sat 10:55:21 PM 35.3561 -114.1994 243° Southwest 480 552 38,000  Level Los Angeles Center
Sat 10:56:22 PM 35.2983 -114.3439 244° Southwest 472 543 38,000  Level Los Angeles Center
Sat 10:57:23 PM 35.2381 -114.4914 243° Southwest 477 549 38,000  Level Los Angeles Center
Sat 10:58:25 PM 35.1761 -114.6361 242° Southwest 478 550 38,000  Level Los Angeles Center
Sat 10:59:26 PM 35.1153 -114.7803 243° Southwest 477 549 38,000  Level Los Angeles Center
Sat 11:00:27 PM 35.0558 -114.9247 243° Southwest 476 548 38,000  Level Los Angeles Center
Sat 11:01:28 PM 34.9842 -115.0986 243° Southwest 477 549 38,000  Level Los Angeles Center
Sat 11:02:29 PM 34.9236 -115.2414 243° Southwest 475 547 38,000 -49 Level Los Angeles Center
Sat 11:03:30 PM 34.8622 -115.3850 243° Southwest 476 548 37,900 -738 Descending Los Angeles Center
Sat 11:04:31 PM 34.8022 -115.5286 243° Southwest 477 549 36,500 -1,317 Descending Los Angeles Center
Sat 11:05:33 PM 34.7375 -115.6789 242° Southwest 483 556 35,200 -1,220 Descending Los Angeles Center
Sat 11:06:34 PM 34.6753 -115.8233 242° Southwest 483 556 34,000 -1,033 Descending Los Angeles Center
Sat 11:07:35 PM 34.6131 -115.9672 242° Southwest 482 555 33,100 -984 Descending Los Angeles Center
Sat 11:08:36 PM 34.5522 -116.1058 242° Southwest 468 539 32,000 -1,574 Descending Los Angeles Center
Sat 11:09:37 PM 34.4936 -116.2389 242° Southwest 450 518 29,900 -2,016 Descending Los Angeles Center
Sat 11:10:38 PM 34.4339 -116.3747 242° Southwest 455 524 27,900 -1,426 Descending Los Angeles Center
Sat 11:11:39 PM 34.3742 -116.5114 242° Southwest 458 527 27,000 -1,475 Descending Los Angeles Center
Sat 11:12:40 PM 34.3139 -116.6478 242° Southwest 460 529 24,900 -1,967 Descending Los Angeles Center
Sat 11:13:41 PM 34.2539 -116.7822 242° Southwest 455 524 23,000 -2,016 Descending Los Angeles Center
Sat 11:14:42 PM 34.1967 -116.9097 242° Southwest 437 503 20,800 -2,049 Descending Los Angeles Center
Sat 11:15:44 PM 34.1433 -117.0308 242° Southwest 415 478 18,800 -1,879 Descending Los Angeles Center
Sat 11:16:21 PM 34.1000 -117.1167 239° Southwest 393 452 17,700 -1,918 Descending Southern California TRACON
Sat 11:17:21 PM 34.0500 -117.2333 243° Southwest 385 443 15,700 -1,750 Descending Southern California TRACON
Sat 11:18:21 PM 34.0333 -117.3500 260° West 326 375 14,200 -1,800 Descending Southern California TRACON
Sat 11:19:21 PM 34.0333 -117.4500 270° West 311 358 12,100 -1,667 Descending Southern California TRACON
Sat 11:20:27 PM 34.0167 -117.5667 260° West 325 374 10,700 -1,000 Descending Southern California TRACON
Sat 11:21:27 PM 34.0000 -117.6667 259° West 313 360 10,000 -750 Descending Southern California TRACON
Sat 11:22:27 PM 34.0000 -117.7667 270° West 294 338 9,200 -1,150 Descending Southern California TRACON
Sat 11:23:27 PM 33.9833 -117.8667 259° West 293 337 7,700 -1,300 Descending Southern California TRACON
Sat 11:24:27 PM 33.9833 -117.9500 270° West 258 297 6,600 -1,095 Descending Southern California TRACON
Sat 11:25:33 PM 33.9667 -118.0500 259° West 244 281 5,400 -1,095 Descending Southern California TRACON
Sat 11:26:33 PM 33.9667 -118.1167 270° West 233 268 4,300 -1,084 Descending Southern California TRACON
Sat 11:26:56 PM 33.9611 -118.1475 258° West 237 273 3,900 -1,043 Descending Los Angeles Center

Login

Don't have an account? Register now (free) for customized features, flight alerts, and more!